sensor_id;sensor_type;location;lat;lon;timestamp;P1;durP1;ratioP1;P2;durP2;ratioP2
18695;SDS011;22617;43.690;27.956;2023-04-25T00:05:01;12.63;;;6.83;;
18695;SDS011;22617;43.690;27.956;2023-04-25T00:10:06;16.27;;;7.27;;
18695;SDS011;22617;43.690;27.956;2023-04-25T00:15:11;16.87;;;7.43;;
18695;SDS011;22617;43.690;27.956;2023-04-25T00:20:17;18.73;;;7.13;;
18695;SDS011;22617;43.690;27.956;2023-04-25T00:25:20;13.13;;;7.33;;
18695;SDS011;22617;43.690;27.956;2023-04-25T00:30:24;17.90;;;7.37;;
18695;SDS011;22617;43.690;27.956;2023-04-25T00:35:29;14.47;;;6.33;;
18695;SDS011;22617;43.690;27.956;2023-04-25T00:40:32;14.50;;;7.17;;
18695;SDS011;22617;43.690;27.956;2023-04-25T00:45:37;16.53;;;7.10;;
18695;SDS011;22617;43.690;27.956;2023-04-25T00:50:44;17.93;;;7.47;;
18695;SDS011;22617;43.690;27.956;2023-04-25T00:55:56;14.93;;;7.23;;
18695;SDS011;22617;43.690;27.956;2023-04-25T01:00:59;15.40;;;7.03;;
18695;SDS011;22617;43.690;27.956;2023-04-25T01:06:06;19.77;;;7.50;;
18695;SDS011;22617;43.690;27.956;2023-04-25T01:11:10;14.30;;;7.50;;
18695;SDS011;22617;43.690;27.956;2023-04-25T01:16:14;17.43;;;8.27;;
18695;SDS011;22617;43.690;27.956;2023-04-25T01:21:19;16.97;;;7.70;;
18695;SDS011;22617;43.690;27.956;2023-04-25T01:26:23;18.20;;;8.23;;
18695;SDS011;22617;43.690;27.956;2023-04-25T01:31:28;19.00;;;8.57;;
18695;SDS011;22617;43.690;27.956;2023-04-25T01:36:35;16.40;;;8.07;;
18695;SDS011;22617;43.690;27.956;2023-04-25T01:41:38;21.57;;;9.47;;
18695;SDS011;22617;43.690;27.956;2023-04-25T01:46:42;20.07;;;8.80;;
18695;SDS011;22617;43.690;27.956;2023-04-25T01:51:47;21.47;;;8.87;;
18695;SDS011;22617;43.690;27.956;2023-04-25T01:56:51;18.00;;;8.97;;
18695;SDS011;22617;43.690;27.956;2023-04-25T02:01:56;20.87;;;9.23;;
18695;SDS011;22617;43.690;27.956;2023-04-25T02:07:06;20.57;;;9.27;;
18695;SDS011;22617;43.690;27.956;2023-04-25T02:12:26;16.40;;;8.50;;
18695;SDS011;22617;43.690;27.956;2023-04-25T02:17:59;19.87;;;9.07;;
18695;SDS011;22617;43.690;27.956;2023-04-25T02:23:05;18.53;;;8.70;;
18695;SDS011;22617;43.690;27.956;2023-04-25T02:28:08;18.07;;;9.13;;
18695;SDS011;22617;43.690;27.956;2023-04-25T02:33:12;19.60;;;9.50;;
18695;SDS011;22617;43.690;27.956;2023-04-25T02:38:20;17.77;;;8.77;;
18695;SDS011;22617;43.690;27.956;2023-04-25T02:43:23;25.03;;;10.10;;
18695;SDS011;22617;43.690;27.956;2023-04-25T02:48:27;20.70;;;10.20;;
18695;SDS011;22617;43.690;27.956;2023-04-25T02:53:32;23.47;;;9.47;;
18695;SDS011;22617;43.690;27.956;2023-04-25T02:58:36;19.40;;;9.53;;
18695;SDS011;22617;43.690;27.956;2023-04-25T03:03:40;25.97;;;10.57;;
18695;SDS011;22617;43.690;27.956;2023-04-25T03:08:45;25.37;;;10.07;;
18695;SDS011;22617;43.690;27.956;2023-04-25T03:13:49;19.20;;;10.60;;
18695;SDS011;22617;43.690;27.956;2023-04-25T03:18:54;25.23;;;10.70;;
18695;SDS011;22617;43.690;27.956;2023-04-25T03:24:00;22.60;;;10.30;;
18695;SDS011;22617;43.690;27.956;2023-04-25T03:29:05;29.50;;;10.53;;
18695;SDS011;22617;43.690;27.956;2023-04-25T03:34:10;24.30;;;11.10;;
18695;SDS011;22617;43.690;27.956;2023-04-25T03:39:17;28.37;;;10.43;;
18695;SDS011;22617;43.690;27.956;2023-04-25T03:44:24;27.13;;;11.07;;
18695;SDS011;22617;43.690;27.956;2023-04-25T03:49:27;26.60;;;10.60;;
18695;SDS011;22617;43.690;27.956;2023-04-25T03:54:36;27.80;;;10.93;;
18695;SDS011;22617;43.690;27.956;2023-04-25T03:59:44;22.20;;;10.67;;
18695;SDS011;22617;43.690;27.956;2023-04-25T04:04:49;22.20;;;10.03;;
18695;SDS011;22617;43.690;27.956;2023-04-25T04:09:55;25.97;;;11.47;;
18695;SDS011;22617;43.690;27.956;2023-04-25T04:15:05;22.37;;;12.23;;
18695;SDS011;22617;43.690;27.956;2023-04-25T04:20:10;23.93;;;11.70;;
18695;SDS011;22617;43.690;27.956;2023-04-25T04:25:16;33.83;;;11.20;;
18695;SDS011;22617;43.690;27.956;2023-04-25T04:30:40;28.17;;;12.23;;
18695;SDS011;22617;43.690;27.956;2023-04-25T04:35:44;25.87;;;10.77;;
18695;SDS011;22617;43.690;27.956;2023-04-25T04:40:51;24.93;;;11.00;;
18695;SDS011;22617;43.690;27.956;2023-04-25T04:46:18;22.57;;;10.00;;
18695;SDS011;22617;43.690;27.956;2023-04-25T04:51:40;25.73;;;9.43;;
18695;SDS011;22617;43.690;27.956;2023-04-25T04:57:07;22.40;;;10.40;;
18695;SDS011;22617;43.690;27.956;2023-04-25T05:02:29;18.03;;;8.97;;
18695;SDS011;22617;43.690;27.956;2023-04-25T05:07:53;20.40;;;8.67;;
18695;SDS011;22617;43.690;27.956;2023-04-25T05:13:17;14.23;;;7.20;;
18695;SDS011;22617;43.690;27.956;2023-04-25T05:18:39;19.10;;;7.90;;
18695;SDS011;22617;43.690;27.956;2023-04-25T05:24:06;17.10;;;7.13;;
18695;SDS011;22617;43.690;27.956;2023-04-25T05:29:40;10.50;;;6.53;;
18695;SDS011;22617;43.690;27.956;2023-04-25T05:35:16;12.23;;;6.43;;
18695;SDS011;22617;43.690;27.956;2023-04-25T05:40:22;15.53;;;6.10;;
18695;SDS011;22617;43.690;27.956;2023-04-25T05:45:44;17.70;;;6.40;;
18695;SDS011;22617;43.690;27.956;2023-04-25T05:51:06;11.60;;;5.70;;
18695;SDS011;22617;43.690;27.956;2023-04-25T05:56:21;14.70;;;5.87;;
18695;SDS011;22617;43.690;27.956;2023-04-25T06:01:28;7.53;;;5.17;;
18695;SDS011;22617;43.690;27.956;2023-04-25T06:06:33;14.73;;;6.10;;
18695;SDS011;22617;43.690;27.956;2023-04-25T06:11:36;12.53;;;5.67;;
18695;SDS011;22617;43.690;27.956;2023-04-25T06:16:41;9.97;;;5.73;;
18695;SDS011;22617;43.690;27.956;2023-04-25T06:21:45;8.27;;;5.40;;
18695;SDS011;22617;43.690;27.956;2023-04-25T06:26:49;11.47;;;4.80;;
18695;SDS011;22617;43.690;27.956;2023-04-25T06:31:54;13.17;;;5.17;;
18695;SDS011;22617;43.690;27.956;2023-04-25T06:36:58;10.87;;;4.90;;
18695;SDS011;22617;43.690;27.956;2023-04-25T06:42:02;8.37;;;4.53;;
18695;SDS011;22617;43.690;27.956;2023-04-25T06:47:22;11.67;;;4.40;;
18695;SDS011;22617;43.690;27.956;2023-04-25T06:52:25;12.77;;;4.43;;
18695;SDS011;22617;43.690;27.956;2023-04-25T06:57:29;12.13;;;4.47;;
18695;SDS011;22617;43.690;27.956;2023-04-25T07:02:47;9.23;;;4.50;;
18695;SDS011;22617;43.690;27.956;2023-04-25T07:07:51;11.37;;;4.70;;
18695;SDS011;22617;43.690;27.956;2023-04-25T07:12:55;9.57;;;4.33;;
18695;SDS011;22617;43.690;27.956;2023-04-25T07:18:00;8.10;;;4.20;;
18695;SDS011;22617;43.690;27.956;2023-04-25T07:23:04;13.03;;;4.20;;
18695;SDS011;22617;43.690;27.956;2023-04-25T07:28:09;9.50;;;4.47;;
18695;SDS011;22617;43.690;27.956;2023-04-25T07:33:14;8.13;;;4.30;;
18695;SDS011;22617;43.690;27.956;2023-04-25T07:38:18;12.13;;;4.83;;
18695;SDS011;22617;43.690;27.956;2023-04-25T07:43:21;10.87;;;4.90;;
18695;SDS011;22617;43.690;27.956;2023-04-25T07:48:34;8.80;;;3.83;;
18695;SDS011;22617;43.690;27.956;2023-04-25T07:53:38;12.10;;;5.33;;
18695;SDS011;22617;43.690;27.956;2023-04-25T07:58:46;9.93;;;4.67;;
18695;SDS011;22617;43.690;27.956;2023-04-25T08:03:54;9.87;;;4.80;;
18695;SDS011;22617;43.690;27.956;2023-04-25T08:09:08;10.27;;;4.90;;
18695;SDS011;22617;43.690;27.956;2023-04-25T08:14:14;8.33;;;4.73;;
18695;SDS011;22617;43.690;27.956;2023-04-25T08:19:20;8.00;;;4.27;;
18695;SDS011;22617;43.690;27.956;2023-04-25T08:24:24;10.27;;;4.50;;
18695;SDS011;22617;43.690;27.956;2023-04-25T08:29:28;9.47;;;4.17;;
18695;SDS011;22617;43.690;27.956;2023-04-25T08:34:33;9.17;;;4.47;;
18695;SDS011;22617;43.690;27.956;2023-04-25T08:39:38;8.20;;;4.25;;
18695;SDS011;22617;43.690;27.956;2023-04-25T08:44:48;7.03;;;4.05;;
18695;SDS011;22617;43.690;27.956;2023-04-25T08:49:55;7.97;;;4.35;;
18695;SDS011;22617;43.690;27.956;2023-04-25T08:54:59;6.07;;;3.90;;
18695;SDS011;22617;43.690;27.956;2023-04-25T09:00:08;7.45;;;3.95;;
18695;SDS011;22617;43.690;27.956;2023-04-25T09:05:18;7.82;;;4.53;;
18695;SDS011;22617;43.690;27.956;2023-04-25T09:10:42;9.25;;;4.07;;
18695;SDS011;22617;43.690;27.956;2023-04-25T09:15:47;8.30;;;4.07;;
18695;SDS011;22617;43.690;27.956;2023-04-25T09:21:21;9.80;;;3.77;;
18695;SDS011;22617;43.690;27.956;2023-04-25T09:26:26;9.17;;;4.27;;
18695;SDS011;22617;43.690;27.956;2023-04-25T09:31:34;8.83;;;4.17;;
18695;SDS011;22617;43.690;27.956;2023-04-25T09:36:41;7.13;;;4.10;;
18695;SDS011;22617;43.690;27.956;2023-04-25T09:42:21;5.82;;;3.90;;
18695;SDS011;22617;43.690;27.956;2023-04-25T09:47:26;8.37;;;4.50;;
18695;SDS011;22617;43.690;27.956;2023-04-25T09:52:32;6.80;;;4.33;;
18695;SDS011;22617;43.690;27.956;2023-04-25T09:57:58;9.63;;;5.00;;
18695;SDS011;22617;43.690;27.956;2023-04-25T10:03:09;8.80;;;4.80;;
18695;SDS011;22617;43.690;27.956;2023-04-25T10:08:34;10.23;;;4.53;;
18695;SDS011;22617;43.690;27.956;2023-04-25T10:13:39;9.70;;;4.90;;
18695;SDS011;22617;43.690;27.956;2023-04-25T10:18:44;12.33;;;5.17;;
18695;SDS011;22617;43.690;27.956;2023-04-25T10:23:49;9.73;;;4.50;;
18695;SDS011;22617;43.690;27.956;2023-04-25T10:28:57;9.30;;;4.80;;
18695;SDS011;22617;43.690;27.956;2023-04-25T10:34:02;7.97;;;4.63;;
18695;SDS011;22617;43.690;27.956;2023-04-25T10:39:09;10.27;;;4.57;;
18695;SDS011;22617;43.690;27.956;2023-04-25T10:44:12;7.33;;;4.60;;
18695;SDS011;22617;43.690;27.956;2023-04-25T10:49:32;8.60;;;4.43;;
18695;SDS011;22617;43.690;27.956;2023-04-25T10:54:41;6.47;;;4.07;;
18695;SDS011;22617;43.690;27.956;2023-04-25T10:59:45;15.27;;;4.47;;
18695;SDS011;22617;43.690;27.956;2023-04-25T11:04:49;10.47;;;5.80;;
18695;SDS011;22617;43.690;27.956;2023-04-25T11:09:55;8.90;;;4.53;;
18695;SDS011;22617;43.690;27.956;2023-04-25T11:14:59;7.20;;;4.57;;
18695;SDS011;22617;43.690;27.956;2023-04-25T11:20:05;8.87;;;4.13;;
18695;SDS011;22617;43.690;27.956;2023-04-25T11:25:15;5.50;;;4.30;;
18695;SDS011;22617;43.690;27.956;2023-04-25T11:30:19;6.37;;;4.00;;
18695;SDS011;22617;43.690;27.956;2023-04-25T11:35:24;5.38;;;4.00;;
18695;SDS011;22617;43.690;27.956;2023-04-25T11:40:29;6.25;;;3.83;;
18695;SDS011;22617;43.690;27.956;2023-04-25T11:45:34;6.68;;;4.38;;
18695;SDS011;22617;43.690;27.956;2023-04-25T11:50:39;9.05;;;3.83;;
18695;SDS011;22617;43.690;27.956;2023-04-25T11:55:45;7.93;;;3.45;;
18695;SDS011;22617;43.690;27.956;2023-04-25T12:00:48;5.47;;;2.80;;
18695;SDS011;22617;43.690;27.956;2023-04-25T12:05:52;8.25;;;2.97;;
18695;SDS011;22617;43.690;27.956;2023-04-25T12:10:57;4.47;;;2.60;;
18695;SDS011;22617;43.690;27.956;2023-04-25T12:16:01;5.03;;;3.60;;
18695;SDS011;22617;43.690;27.956;2023-04-25T12:21:05;3.95;;;2.35;;
18695;SDS011;22617;43.690;27.956;2023-04-25T12:26:10;5.63;;;2.60;;
18695;SDS011;22617;43.690;27.956;2023-04-25T12:31:13;5.65;;;2.70;;
18695;SDS011;22617;43.690;27.956;2023-04-25T12:36:18;8.03;;;2.30;;
18695;SDS011;22617;43.690;27.956;2023-04-25T12:41:22;6.88;;;2.65;;
18695;SDS011;22617;43.690;27.956;2023-04-25T12:46:26;2.80;;;2.43;;
18695;SDS011;22617;43.690;27.956;2023-04-25T12:51:30;4.60;;;2.90;;
18695;SDS011;22617;43.690;27.956;2023-04-25T12:56:36;6.40;;;4.07;;
18695;SDS011;22617;43.690;27.956;2023-04-25T13:01:40;8.48;;;4.53;;
18695;SDS011;22617;43.690;27.956;2023-04-25T13:06:44;7.40;;;4.13;;
18695;SDS011;22617;43.690;27.956;2023-04-25T13:11:49;12.17;;;5.27;;
18695;SDS011;22617;43.690;27.956;2023-04-25T13:16:56;8.33;;;4.23;;
18695;SDS011;22617;43.690;27.956;2023-04-25T13:22:00;9.47;;;5.23;;
18695;SDS011;22617;43.690;27.956;2023-04-25T13:27:07;7.13;;;4.77;;
18695;SDS011;22617;43.690;27.956;2023-04-25T13:32:11;7.57;;;4.33;;
18695;SDS011;22617;43.690;27.956;2023-04-25T13:37:15;6.33;;;4.10;;
18695;SDS011;22617;43.690;27.956;2023-04-25T13:42:19;6.07;;;4.40;;
18695;SDS011;22617;43.690;27.956;2023-04-25T13:47:24;6.03;;;4.40;;
18695;SDS011;22617;43.690;27.956;2023-04-25T13:52:29;8.73;;;4.83;;
18695;SDS011;22617;43.690;27.956;2023-04-25T13:57:34;6.73;;;5.00;;
18695;SDS011;22617;43.690;27.956;2023-04-25T14:02:41;9.07;;;4.57;;
18695;SDS011;22617;43.690;27.956;2023-04-25T14:07:45;8.23;;;4.90;;
18695;SDS011;22617;43.690;27.956;2023-04-25T14:12:50;9.13;;;5.60;;
18695;SDS011;22617;43.690;27.956;2023-04-25T14:17:54;8.20;;;5.70;;
18695;SDS011;22617;43.690;27.956;2023-04-25T14:22:57;9.43;;;6.60;;
18695;SDS011;22617;43.690;27.956;2023-04-25T14:28:02;10.20;;;6.43;;
18695;SDS011;22617;43.690;27.956;2023-04-25T14:33:06;11.53;;;6.93;;
18695;SDS011;22617;43.690;27.956;2023-04-25T14:38:10;13.00;;;7.40;;
18695;SDS011;22617;43.690;27.956;2023-04-25T14:43:15;16.47;;;9.20;;
18695;SDS011;22617;43.690;27.956;2023-04-25T14:48:19;21.37;;;11.10;;
18695;SDS011;22617;43.690;27.956;2023-04-25T14:53:23;14.43;;;8.47;;
18695;SDS011;22617;43.690;27.956;2023-04-25T14:58:28;34.83;;;14.57;;
18695;SDS011;22617;43.690;27.956;2023-04-25T15:03:31;42.20;;;15.10;;
18695;SDS011;22617;43.690;27.956;2023-04-25T15:08:35;12.13;;;7.90;;
18695;SDS011;22617;43.690;27.956;2023-04-25T15:13:40;8.80;;;6.20;;
18695;SDS011;22617;43.690;27.956;2023-04-25T15:18:44;10.47;;;5.07;;
18695;SDS011;22617;43.690;27.956;2023-04-25T15:23:47;11.60;;;5.13;;
18695;SDS011;22617;43.690;27.956;2023-04-25T15:28:52;9.40;;;5.30;;
18695;SDS011;22617;43.690;27.956;2023-04-25T15:33:56;7.60;;;5.20;;
18695;SDS011;22617;43.690;27.956;2023-04-25T15:39:00;9.47;;;5.93;;
18695;SDS011;22617;43.690;27.956;2023-04-25T15:44:06;8.53;;;4.70;;
18695;SDS011;22617;43.690;27.956;2023-04-25T15:49:11;5.57;;;4.10;;
18695;SDS011;22617;43.690;27.956;2023-04-25T15:54:16;6.63;;;4.27;;
18695;SDS011;22617;43.690;27.956;2023-04-25T15:59:21;7.37;;;3.50;;
18695;SDS011;22617;43.690;27.956;2023-04-25T16:04:25;3.50;;;2.50;;
18695;SDS011;22617;43.690;27.956;2023-04-25T16:09:36;3.17;;;1.83;;
18695;SDS011;22617;43.690;27.956;2023-04-25T16:14:41;2.57;;;2.10;;
18695;SDS011;22617;43.690;27.956;2023-04-25T16:19:45;4.17;;;2.50;;
18695;SDS011;22617;43.690;27.956;2023-04-25T16:24:49;4.33;;;2.50;;
18695;SDS011;22617;43.690;27.956;2023-04-25T16:29:54;3.73;;;2.50;;
18695;SDS011;22617;43.690;27.956;2023-04-25T16:34:58;10.03;;;3.93;;
18695;SDS011;22617;43.690;27.956;2023-04-25T16:40:05;4.87;;;2.97;;
18695;SDS011;22617;43.690;27.956;2023-04-25T16:45:12;5.87;;;3.80;;
18695;SDS011;22617;43.690;27.956;2023-04-25T16:50:18;6.57;;;2.53;;
18695;SDS011;22617;43.690;27.956;2023-04-25T16:55:22;2.30;;;2.10;;
18695;SDS011;22617;43.690;27.956;2023-04-25T17:00:28;3.63;;;1.93;;
18695;SDS011;22617;43.690;27.956;2023-04-25T17:05:32;2.27;;;1.80;;
18695;SDS011;22617;43.690;27.956;2023-04-25T17:10:36;2.13;;;1.47;;
18695;SDS011;22617;43.690;27.956;2023-04-25T17:15:42;2.10;;;1.80;;
18695;SDS011;22617;43.690;27.956;2023-04-25T17:20:46;3.33;;;2.10;;
18695;SDS011;22617;43.690;27.956;2023-04-25T17:25:50;5.90;;;1.70;;
18695;SDS011;22617;43.690;27.956;2023-04-25T17:30:56;2.60;;;1.47;;
18695;SDS011;22617;43.690;27.956;2023-04-25T17:36:00;2.27;;;1.73;;
18695;SDS011;22617;43.690;27.956;2023-04-25T17:41:05;1.93;;;1.60;;
18695;SDS011;22617;43.690;27.956;2023-04-25T17:46:11;3.83;;;2.07;;
18695;SDS011;22617;43.690;27.956;2023-04-25T17:51:15;3.23;;;1.70;;
18695;SDS011;22617;43.690;27.956;2023-04-25T17:56:19;2.93;;;1.50;;
18695;SDS011;22617;43.690;27.956;2023-04-25T18:01:30;2.00;;;1.50;;
18695;SDS011;22617;43.690;27.956;2023-04-25T18:06:35;2.57;;;1.70;;
18695;SDS011;22617;43.690;27.956;2023-04-25T18:11:39;2.27;;;1.80;;
18695;SDS011;22617;43.690;27.956;2023-04-25T18:16:46;2.00;;;1.60;;
18695;SDS011;22617;43.690;27.956;2023-04-25T18:21:51;1.80;;;1.50;;
18695;SDS011;22617;43.690;27.956;2023-04-25T18:26:57;1.40;;;1.30;;
18695;SDS011;22617;43.690;27.956;2023-04-25T18:32:03;2.03;;;1.50;;
18695;SDS011;22617;43.690;27.956;2023-04-25T18:37:08;2.40;;;1.90;;
18695;SDS011;22617;43.690;27.956;2023-04-25T18:42:13;3.60;;;2.83;;
18695;SDS011;22617;43.690;27.956;2023-04-25T18:47:19;4.43;;;2.90;;
18695;SDS011;22617;43.690;27.956;2023-04-25T18:52:23;5.80;;;3.57;;
18695;SDS011;22617;43.690;27.956;2023-04-25T18:57:27;8.53;;;4.33;;
18695;SDS011;22617;43.690;27.956;2023-04-25T19:02:32;9.33;;;5.10;;
18695;SDS011;22617;43.690;27.956;2023-04-25T19:07:37;9.03;;;5.33;;
18695;SDS011;22617;43.690;27.956;2023-04-25T19:12:41;11.83;;;5.60;;
18695;SDS011;22617;43.690;27.956;2023-04-25T19:17:47;7.77;;;4.77;;
18695;SDS011;22617;43.690;27.956;2023-04-25T19:22:52;8.00;;;5.13;;
18695;SDS011;22617;43.690;27.956;2023-04-25T19:27:56;8.80;;;5.07;;
18695;SDS011;22617;43.690;27.956;2023-04-25T19:33:03;8.63;;;5.13;;
18695;SDS011;22617;43.690;27.956;2023-04-25T19:38:07;6.57;;;4.40;;
18695;SDS011;22617;43.690;27.956;2023-04-25T19:43:12;5.27;;;3.30;;
18695;SDS011;22617;43.690;27.956;2023-04-25T19:48:17;4.87;;;3.40;;
18695;SDS011;22617;43.690;27.956;2023-04-25T19:53:22;6.90;;;3.30;;
18695;SDS011;22617;43.690;27.956;2023-04-25T19:58:25;5.03;;;3.23;;
18695;SDS011;22617;43.690;27.956;2023-04-25T20:03:32;5.40;;;3.10;;
18695;SDS011;22617;43.690;27.956;2023-04-25T20:08:37;4.00;;;2.73;;
18695;SDS011;22617;43.690;27.956;2023-04-25T20:13:42;4.60;;;3.13;;
18695;SDS011;22617;43.690;27.956;2023-04-25T20:18:47;4.37;;;2.93;;
18695;SDS011;22617;43.690;27.956;2023-04-25T20:23:54;3.90;;;2.60;;
18695;SDS011;22617;43.690;27.956;2023-04-25T20:28:58;6.50;;;3.07;;
18695;SDS011;22617;43.690;27.956;2023-04-25T20:34:04;5.07;;;2.83;;
18695;SDS011;22617;43.690;27.956;2023-04-25T20:39:08;4.53;;;2.60;;
18695;SDS011;22617;43.690;27.956;2023-04-25T20:44:12;4.73;;;2.70;;
18695;SDS011;22617;43.690;27.956;2023-04-25T20:49:18;5.57;;;3.27;;
18695;SDS011;22617;43.690;27.956;2023-04-25T20:54:22;4.87;;;2.80;;
18695;SDS011;22617;43.690;27.956;2023-04-25T20:59:28;5.20;;;2.90;;
18695;SDS011;22617;43.690;27.956;2023-04-25T21:04:33;3.03;;;2.27;;
18695;SDS011;22617;43.690;27.956;2023-04-25T21:09:36;4.93;;;2.40;;
18695;SDS011;22617;43.690;27.956;2023-04-25T21:14:40;4.33;;;2.50;;
18695;SDS011;22617;43.690;27.956;2023-04-25T21:19:46;4.67;;;3.10;;
18695;SDS011;22617;43.690;27.956;2023-04-25T21:24:49;6.23;;;3.10;;
18695;SDS011;22617;43.690;27.956;2023-04-25T21:29:55;5.43;;;3.60;;
18695;SDS011;22617;43.690;27.956;2023-04-25T21:35:00;4.40;;;3.20;;
18695;SDS011;22617;43.690;27.956;2023-04-25T21:40:04;5.20;;;3.50;;
18695;SDS011;22617;43.690;27.956;2023-04-25T21:45:10;5.97;;;4.13;;
18695;SDS011;22617;43.690;27.956;2023-04-25T21:50:15;6.00;;;3.70;;
18695;SDS011;22617;43.690;27.956;2023-04-25T21:55:20;7.20;;;4.23;;
18695;SDS011;22617;43.690;27.956;2023-04-25T22:00:24;7.17;;;4.47;;
18695;SDS011;22617;43.690;27.956;2023-04-25T22:05:30;7.97;;;4.50;;
18695;SDS011;22617;43.690;27.956;2023-04-25T22:10:35;7.43;;;4.10;;
18695;SDS011;22617;43.690;27.956;2023-04-25T22:15:40;8.10;;;4.17;;
18695;SDS011;22617;43.690;27.956;2023-04-25T22:20:46;7.60;;;3.80;;
18695;SDS011;22617;43.690;27.956;2023-04-25T22:25:50;8.10;;;4.33;;
18695;SDS011;22617;43.690;27.956;2023-04-25T22:30:54;7.00;;;3.47;;
18695;SDS011;22617;43.690;27.956;2023-04-25T22:35:59;4.73;;;3.20;;
18695;SDS011;22617;43.690;27.956;2023-04-25T22:41:04;4.57;;;2.97;;
18695;SDS011;22617;43.690;27.956;2023-04-25T22:46:14;5.47;;;3.30;;
18695;SDS011;22617;43.690;27.956;2023-04-25T22:51:20;6.60;;;3.87;;
18695;SDS011;22617;43.690;27.956;2023-04-25T22:56:24;28.60;;;12.60;;
18695;SDS011;22617;43.690;27.956;2023-04-25T23:01:28;10.90;;;5.77;;
18695;SDS011;22617;43.690;27.956;2023-04-25T23:06:34;6.53;;;3.63;;
18695;SDS011;22617;43.690;27.956;2023-04-25T23:11:40;5.33;;;3.10;;
18695;SDS011;22617;43.690;27.956;2023-04-25T23:16:44;5.37;;;2.80;;
18695;SDS011;22617;43.690;27.956;2023-04-25T23:21:50;5.80;;;3.07;;
18695;SDS011;22617;43.690;27.956;2023-04-25T23:26:53;28.33;;;11.47;;
18695;SDS011;22617;43.690;27.956;2023-04-25T23:31:57;9.17;;;5.50;;
18695;SDS011;22617;43.690;27.956;2023-04-25T23:37:03;37.90;;;20.40;;
18695;SDS011;22617;43.690;27.956;2023-04-25T23:42:08;13.70;;;5.30;;
18695;SDS011;22617;43.690;27.956;2023-04-25T23:47:12;10.50;;;4.03;;
18695;SDS011;22617;43.690;27.956;2023-04-25T23:52:20;5.67;;;3.60;;
18695;SDS011;22617;43.690;27.956;2023-04-25T23:57:24;4.63;;;3.13;;
